createdAt,value
2018-12-08T00:00:29.703Z,1.9
2018-12-08T00:05:52.531Z,2.3
2018-12-08T00:11:15.214Z,2.5
2018-12-08T00:16:38.550Z,2.8
2018-12-08T00:22:01.794Z,2.6
2018-12-08T00:27:25.185Z,2.7
2018-12-08T00:32:47.645Z,2.5
2018-12-08T00:38:11.479Z,2.3
2018-12-08T00:43:34.111Z,2.2
2018-12-08T00:48:56.973Z,2.4
2018-12-08T00:54:19.751Z,2.9
2018-12-08T00:59:42.463Z,3.3
2018-12-08T01:05:05.254Z,4.2
2018-12-08T01:10:27.911Z,4.7
2018-12-08T01:15:50.565Z,4.6
2018-12-08T01:21:13.281Z,5.3
2018-12-08T01:26:36.633Z,5.2
2018-12-08T01:31:59.292Z,5.5
2018-12-08T01:37:22.654Z,5.2
2018-12-08T01:42:45.352Z,4.9
2018-12-08T01:48:08.051Z,5
2018-12-08T01:53:30.737Z,4.4
2018-12-08T01:58:53.510Z,3.8
2018-12-08T02:04:16.361Z,3.9
2018-12-08T02:09:38.968Z,3.7
2018-12-08T02:15:01.710Z,4
2018-12-08T02:20:26.012Z,4.7
2018-12-08T02:25:48.870Z,5.1
2018-12-08T02:31:11.538Z,5.5
2018-12-08T02:36:34.221Z,5.5
2018-12-08T02:41:57.492Z,5.4
2018-12-08T02:47:20.227Z,4.9
2018-12-08T02:52:43.660Z,4.5
2018-12-08T02:58:06.322Z,4
2018-12-08T03:03:30.645Z,4
2018-12-08T03:08:53.322Z,3.6
2018-12-08T03:14:16.867Z,3.3
2018-12-08T03:19:40.645Z,2.5
2018-12-08T03:25:03.323Z,3.2
2018-12-08T03:30:25.978Z,2.1
2018-12-08T03:35:48.558Z,2.6
2018-12-08T03:41:11.200Z,2.3
2018-12-08T03:46:33.794Z,2.4
2018-12-08T03:51:56.520Z,2.1
2018-12-08T03:57:19.630Z,2.3
2018-12-08T04:02:42.295Z,2.3
2018-12-08T04:08:04.974Z,2.6
2018-12-08T04:13:27.599Z,2.9
2018-12-08T04:18:50.274Z,2.7
2018-12-08T04:24:12.883Z,2.4
2018-12-08T04:29:36.824Z,2.8
2018-12-08T04:34:59.429Z,3.1
2018-12-08T04:40:22.244Z,3.4
2018-12-08T04:45:45.245Z,3.4
2018-12-08T04:51:08.089Z,3.2
2018-12-08T04:56:30.728Z,3.8
2018-12-08T05:01:53.830Z,3.2
2018-12-08T05:07:16.883Z,3.6
2018-12-08T05:12:40.439Z,4.1
2018-12-08T05:18:03.042Z,4.1
2018-12-08T05:23:25.679Z,3.8
2018-12-08T05:28:48.413Z,3.7
2018-12-08T05:34:11.519Z,3.6
2018-12-08T05:39:34.380Z,3.6
2018-12-08T05:44:57.300Z,3.4
2018-12-08T05:50:20.097Z,3.5
2018-12-08T05:55:43.235Z,3.2
2018-12-08T06:01:05.921Z,3.5
2018-12-08T06:06:29.226Z,3.9
2018-12-08T06:11:53.232Z,3.8
2018-12-08T06:17:16.017Z,3.7
2018-12-08T06:22:38.618Z,3.3
2018-12-08T06:28:01.290Z,3.1
2018-12-08T06:33:25.235Z,3.4
2018-12-08T06:38:47.869Z,3.9
2018-12-08T06:44:11.286Z,3.3
2018-12-08T06:49:33.821Z,3.3
2018-12-08T06:54:56.491Z,3.2
2018-12-08T07:00:20.095Z,2.5
2018-12-08T07:05:43.711Z,3.2
2018-12-08T07:11:06.372Z,3.3
2018-12-08T07:16:28.963Z,3.4
2018-12-08T07:21:51.607Z,3
2018-12-08T07:27:15.634Z,3
2018-12-08T07:32:38.888Z,2.7
2018-12-08T07:38:01.117Z,3.3
2018-12-08T07:43:23.791Z,3.1
2018-12-08T07:48:46.844Z,3.1
2018-12-08T07:54:10.244Z,3.2
2018-12-08T07:59:33.089Z,3
2018-12-08T08:04:55.753Z,3.9
2018-12-08T08:10:20.217Z,3.7
2018-12-08T08:15:42.262Z,3.3
2018-12-08T08:21:05.549Z,3.5
2018-12-08T08:26:28.341Z,3.5
2018-12-08T08:31:51.616Z,3.7
2018-12-08T08:37:15.212Z,3.6
2018-12-08T08:42:37.935Z,2.7
2018-12-08T08:48:01.041Z,3
2018-12-08T08:53:23.668Z,3.2
2018-12-08T08:58:46.394Z,3.4
2018-12-08T09:04:09.293Z,3.2
2018-12-08T09:09:31.970Z,3.8
2018-12-08T09:14:55.364Z,3.6
2018-12-08T09:20:18.149Z,3.5
2018-12-08T09:25:43.656Z,3.5
2018-12-08T09:31:06.901Z,3.7
2018-12-08T09:36:30.575Z,3.8
2018-12-08T09:41:55.181Z,3.7
2018-12-08T09:47:17.883Z,3.7
2018-12-08T09:52:40.699Z,3
2018-12-08T09:58:03.407Z,3.8
2018-12-08T10:03:26.437Z,3.8
2018-12-08T10:08:59.731Z,3.5
2018-12-08T10:14:33.017Z,4
2018-12-08T10:19:57.602Z,3.7
2018-12-08T10:25:30.509Z,3.7
2018-12-08T10:30:55.131Z,3.7
2018-12-08T10:36:17.801Z,3.9
2018-12-08T10:41:40.543Z,4.1
2018-12-08T10:47:04.188Z,3.8
2018-12-08T10:52:26.885Z,3.7
2018-12-08T10:57:50.704Z,4
2018-12-08T11:03:13.493Z,4.3
2018-12-08T11:08:37.308Z,4.5
2018-12-08T11:14:00.003Z,4.3
2018-12-08T11:19:22.762Z,3.8
2018-12-08T11:24:45.970Z,3.8
2018-12-08T11:30:08.971Z,4
2018-12-08T11:35:31.716Z,3.5
2018-12-08T11:40:55.300Z,3.7
2018-12-08T11:46:17.942Z,2.9
2018-12-08T11:51:41.159Z,2.9
2018-12-08T11:57:03.979Z,3.3
2018-12-08T12:02:26.869Z,3.2
2018-12-08T12:07:49.551Z,3.5
2018-12-08T12:13:12.302Z,3.6
2018-12-08T12:18:34.961Z,3.3
2018-12-08T12:23:57.724Z,3.3
2018-12-08T12:29:20.520Z,3
2018-12-08T12:34:43.331Z,3.2
2018-12-08T12:40:06.254Z,3.7
2018-12-08T12:45:29.060Z,3.9
2018-12-08T12:50:51.794Z,3.2
2018-12-08T12:56:14.478Z,3.3
2018-12-08T13:01:37.060Z,3.2
2018-12-08T13:06:59.728Z,3.2
2018-12-08T13:12:22.695Z,2.6
2018-12-08T13:17:45.300Z,2.9
2018-12-08T13:23:07.911Z,2.6
2018-12-08T13:28:31.149Z,2.6
2018-12-08T13:33:54.037Z,2.5
2018-12-08T13:39:16.789Z,2.2
2018-12-08T13:44:39.419Z,2.3
2018-12-08T13:50:02.106Z,2
2018-12-08T13:55:25.879Z,2.1
2018-12-08T14:00:48.674Z,2.4
2018-12-08T14:06:11.516Z,2.7
2018-12-08T14:11:34.375Z,2.5
2018-12-08T14:16:56.997Z,2.4
2018-12-08T14:22:19.638Z,2.4
2018-12-08T14:27:42.825Z,2.5
2018-12-08T14:33:05.435Z,2.6
2018-12-08T14:38:28.305Z,2.6
2018-12-08T14:43:50.897Z,2.5
2018-12-08T14:49:13.678Z,2.5
2018-12-08T14:54:36.262Z,2.5
2018-12-08T14:59:59.164Z,2.3
2018-12-08T15:05:22.081Z,2.8
2018-12-08T15:10:44.750Z,2.3
2018-12-08T15:16:07.425Z,2.3
2018-12-08T15:21:30.060Z,2.5
2018-12-08T15:26:53.680Z,2.3
2018-12-08T15:32:16.536Z,2.4
2018-12-08T15:37:39.530Z,2.4
2018-12-08T15:43:02.224Z,2.6
2018-12-08T15:48:26.158Z,2.2
2018-12-08T15:53:49.575Z,2.2
2018-12-08T15:59:12.478Z,2.5
2018-12-08T16:04:34.889Z,1.8
2018-12-08T16:09:58.538Z,2.1
2018-12-08T16:15:21.330Z,2.3
2018-12-08T16:20:44.175Z,2.3
2018-12-08T16:26:07.444Z,2.6
2018-12-08T16:31:30.423Z,2.1
2018-12-08T16:36:53.521Z,2
2018-12-08T16:42:18.378Z,2.6
2018-12-08T16:47:42.034Z,2.2
2018-12-08T16:53:05.079Z,2.3
2018-12-08T16:58:27.798Z,2.4
2018-12-08T17:03:50.463Z,2.3
2018-12-08T17:09:13.092Z,2.1
2018-12-08T17:14:35.861Z,2.2
2018-12-08T17:19:59.544Z,2.4
2018-12-08T17:25:22.353Z,2.9
2018-12-08T17:30:47.216Z,2.6
2018-12-08T17:36:10.037Z,2.8
2018-12-08T17:41:33.631Z,2.7
2018-12-08T17:46:56.218Z,3.8
2018-12-08T17:52:18.803Z,3.1
2018-12-08T17:57:43.081Z,3
2018-12-08T18:03:05.754Z,2.9
2018-12-08T18:08:29.142Z,2.9
2018-12-08T18:13:52.022Z,4.2
2018-12-08T18:19:15.663Z,4.4
2018-12-08T18:24:38.521Z,3.6
2018-12-08T18:30:01.158Z,4
2018-12-08T18:35:23.972Z,3.7
2018-12-08T18:40:47.419Z,4
2018-12-08T18:46:10.249Z,3.6
2018-12-08T18:51:33.005Z,3.6
2018-12-08T18:56:55.732Z,3.9
2018-12-08T19:02:19.026Z,4.5
2018-12-08T19:07:42.637Z,3.7
2018-12-08T19:13:05.299Z,3.9
2018-12-08T19:18:27.951Z,4.6
2018-12-08T19:23:50.830Z,5.4
2018-12-08T19:29:13.499Z,4.6
2018-12-08T19:34:36.422Z,5.4
2018-12-08T19:39:59.249Z,6.4
2018-12-08T19:45:22.266Z,7.7
2018-12-08T19:50:45.299Z,7.6
2018-12-08T19:56:08.577Z,9.3
2018-12-08T20:01:31.246Z,9
2018-12-08T20:06:53.904Z,8.1
2018-12-08T20:12:18.534Z,8.3
2018-12-08T20:17:41.801Z,8.8
2018-12-08T20:23:04.459Z,9.4
2018-12-08T20:28:28.151Z,9.5
2018-12-08T20:33:51.060Z,8.6
2018-12-08T20:39:13.914Z,8.7
2018-12-08T20:44:37.336Z,8.3
2018-12-08T20:50:01.977Z,7.7
2018-12-08T20:55:25.004Z,7.5
2018-12-08T21:00:48.307Z,8.3
2018-12-08T21:06:19.128Z,7.1
2018-12-08T21:11:42.270Z,5.9
2018-12-08T21:17:05.608Z,5
2018-12-08T21:22:28.241Z,4.6
2018-12-08T21:27:51.326Z,4.2
2018-12-08T21:33:14.284Z,4
2018-12-08T21:38:37.413Z,2.5
2018-12-08T21:44:00.414Z,2.5
2018-12-08T21:49:23.565Z,1.9
2018-12-08T21:54:47.616Z,1.2
2018-12-08T22:00:11.041Z,1.2
2018-12-08T22:05:33.967Z,1.5
2018-12-08T22:10:56.875Z,1
2018-12-08T22:16:20.709Z,1.1
2018-12-08T22:21:44.770Z,1.1
2018-12-08T22:27:07.690Z,1.2
2018-12-08T22:32:30.625Z,1
2018-12-08T22:37:55.212Z,1.3
2018-12-08T22:43:17.862Z,1.1
2018-12-08T22:48:40.551Z,1.8
2018-12-08T22:54:03.272Z,1.9
2018-12-08T22:59:25.984Z,2.5
2018-12-08T23:04:48.948Z,3
2018-12-08T23:10:11.623Z,2.8
2018-12-08T23:15:34.269Z,2.8
2018-12-08T23:20:59.895Z,2.3
2018-12-08T23:26:22.749Z,2.2
2018-12-08T23:31:45.487Z,1.2
2018-12-08T23:37:08.154Z,1.1
2018-12-08T23:42:30.932Z,0.9
2018-12-08T23:47:54.393Z,1
2018-12-08T23:53:17.759Z,1
2018-12-08T23:58:40.467Z,1.2
